SWA1165 KPBI-KBNA
Flight info
| Callsign | SWA1165 |
|---|---|
| Flight time | 1h 52m |
| Altitude | 36000 |
| Route | TBIRD7 KPASA Q118 THRSR SWFFT3 |
| Aircraft | B738/M-SDE2E3FGHIRWXY/LB1 |
Departure
| Time | 2026-04-22 15:00 |
|---|---|
| Airport | Palm Beach International Airport (KPBI) |
Arrival
| Time | 2026-04-22 16:52 |
|---|---|
| Airport | Nashville International Airport (KBNA) |
| Time | Latitude | Longitude | Altitude | Speed | Heading |
|---|---|---|---|---|---|
| 2026-04-22 14:36 | 26.68740 | -80.09329 | 26 ft | 0 kts | 124° |
| 2026-04-22 14:49 | 26.68749 | -80.09342 | 26 ft | 2 kts | 130° |
| 2026-04-22 14:49 | 26.68760 | -80.09355 | 26 ft | 2 kts | 140° |
| 2026-04-22 14:50 | 26.68774 | -80.09366 | 26 ft | 2 kts | 163° |
| 2026-04-22 14:50 | 26.68790 | -80.09366 | 26 ft | 2 kts | 205° |
| 2026-04-22 14:50 | 26.68801 | -80.09358 | 27 ft | 1 kts | 226° |
| 2026-04-22 14:50 | 26.68802 | -80.09356 | 27 ft | 0 kts | 227° |
| 2026-04-22 14:52 | 26.68799 | -80.09361 | 27 ft | 2 kts | 229° |
| 2026-04-22 14:52 | 26.68783 | -80.09392 | 29 ft | 7 kts | 240° |
| 2026-04-22 14:52 | 26.68750 | -80.09437 | 26 ft | 8 kts | 230° |
| 2026-04-22 14:52 | 26.68744 | -80.09445 | 28 ft | 0 kts | 229° |
| 2026-04-22 14:53 | 26.68716 | -80.09490 | 27 ft | 16 kts | 253° |
| 2026-04-22 14:53 | 26.68665 | -80.09636 | 31 ft | 17 kts | 249° |
| 2026-04-22 14:53 | 26.68649 | -80.09745 | 27 ft | 14 kts | 264° |
| 2026-04-22 14:53 | 26.68624 | -80.09953 | 28 ft | 39 kts | 263° |
| 2026-04-22 14:54 | 26.68593 | -80.10193 | 31 ft | 24 kts | 259° |
| 2026-04-22 14:54 | 26.68566 | -80.10367 | 26 ft | 20 kts | 257° |
| 2026-04-22 14:54 | 26.68556 | -80.10517 | 25 ft | 19 kts | 273° |
| 2026-04-22 14:54 | 26.68563 | -80.10679 | 21 ft | 19 kts | 273° |
| 2026-04-22 14:55 | 26.68558 | -80.10787 | 22 ft | 13 kts | 243° |
| 2026-04-22 14:55 | 26.68504 | -80.10817 | 21 ft | 0 kts | 183° |
| 2026-04-22 14:56 | 26.68503 | -80.10817 | 21 ft | 1 kts | 183° |
| 2026-04-22 14:56 | 26.68472 | -80.10819 | 20 ft | 9 kts | 183° |
| 2026-04-22 14:56 | 26.68437 | -80.10821 | 19 ft | 0 kts | 182° |
| 2026-04-22 14:57 | 26.68431 | -80.10821 | 20 ft | 6 kts | 182° |
| 2026-04-22 14:57 | 26.68345 | -80.10808 | 18 ft | 16 kts | 145° |
| 2026-04-22 14:57 | 26.68315 | -80.10690 | 21 ft | 16 kts | 94° |
| 2026-04-22 14:58 | 26.68310 | -80.10566 | 22 ft | 16 kts | 92° |
| 2026-04-22 14:58 | 26.68305 | -80.10454 | 22 ft | 0 kts | 92° |
| 2026-04-22 14:59 | 26.68294 | -80.10207 | 28 ft | 72 kts | 93° |
| 2026-04-22 14:59 | 26.68256 | -80.09353 | 24 ft | 146 kts | 92° |
| 2026-04-22 14:59 | 26.68203 | -80.08029 | 366 ft | 185 kts | 92° |
| 2026-04-22 15:00 | 26.68224 | -80.06517 | 1086 ft | 205 kts | 87° |
| 2026-04-22 15:00 | 26.68675 | -80.05034 | 2223 ft | 196 kts | 64° |
| 2026-04-22 15:00 | 26.69302 | -80.03647 | 2953 ft | 207 kts | 67° |
| 2026-04-22 15:00 | 26.69920 | -80.02164 | 3530 ft | 212 kts | 67° |
| 2026-04-22 15:01 | 26.70536 | -80.00634 | 3939 ft | 221 kts | 68° |
| 2026-04-22 15:01 | 26.71181 | -79.99057 | 4487 ft | 225 kts | 62° |
| 2026-04-22 15:01 | 26.72280 | -79.97791 | 5035 ft | 233 kts | 35° |
| 2026-04-22 15:01 | 26.73845 | -79.97139 | 5449 ft | 248 kts | 15° |
| 2026-04-22 15:02 | 26.75603 | -79.96800 | 5761 ft | 266 kts | 12° |
| 2026-04-22 15:02 | 26.77505 | -79.96859 | 6291 ft | 282 kts | 346° |
| 2026-04-22 15:02 | 26.79205 | -79.97962 | 7107 ft | 289 kts | 315° |
| 2026-04-22 15:02 | 26.80234 | -79.99890 | 7867 ft | 290 kts | 290° |
| 2026-04-22 15:03 | 26.80868 | -80.01982 | 8760 ft | 287 kts | 288° |
| 2026-04-22 15:03 | 26.81496 | -80.04118 | 9494 ft | 291 kts | 289° |
| 2026-04-22 15:03 | 26.82142 | -80.06279 | 10243 ft | 293 kts | 289° |
| 2026-04-22 15:03 | 26.82817 | -80.08509 | 10545 ft | 313 kts | 289° |
| 2026-04-22 15:04 | 26.83545 | -80.10893 | 10714 ft | 335 kts | 289° |
| 2026-04-22 15:04 | 26.84325 | -80.13438 | 10869 ft | 356 kts | 289° |
| 2026-04-22 15:04 | 26.85153 | -80.16130 | 11019 ft | 375 kts | 289° |
| 2026-04-22 15:04 | 26.86019 | -80.18942 | 11234 ft | 389 kts | 289° |
| 2026-04-22 15:05 | 26.86881 | -80.21740 | 11683 ft | 394 kts | 289° |
| 2026-04-22 15:05 | 26.87776 | -80.24646 | 12327 ft | 394 kts | 288° |
| 2026-04-22 15:05 | 26.88673 | -80.27559 | 12924 ft | 396 kts | 288° |
| 2026-04-22 15:05 | 26.89575 | -80.30489 | 13476 ft | 399 kts | 288° |
| 2026-04-22 15:06 | 26.90537 | -80.33415 | 14022 ft | 402 kts | 295° |
| 2026-04-22 15:06 | 26.92157 | -80.35966 | 14549 ft | 405 kts | 314° |
| 2026-04-22 15:06 | 26.94385 | -80.37849 | 15028 ft | 411 kts | 331° |
| 2026-04-22 15:06 | 26.97039 | -80.39086 | 15489 ft | 415 kts | 338° |
| 2026-04-22 15:07 | 26.99766 | -80.40214 | 15966 ft | 417 kts | 338° |
| 2026-04-22 15:07 | 27.02501 | -80.41337 | 16436 ft | 420 kts | 337° |
| 2026-04-22 15:07 | 27.05242 | -80.42480 | 16877 ft | 422 kts | 337° |
| 2026-04-22 15:07 | 27.07999 | -80.43650 | 17306 ft | 425 kts | 336° |
| 2026-04-22 15:08 | 27.10768 | -80.44841 | 17740 ft | 427 kts | 336° |
| 2026-04-22 15:08 | 27.13548 | -80.46041 | 18171 ft | 429 kts | 336° |
| 2026-04-22 15:08 | 27.16345 | -80.47254 | 18583 ft | 432 kts | 336° |
| 2026-04-22 15:08 | 27.19141 | -80.48519 | 18958 ft | 433 kts | 335° |
| 2026-04-22 15:09 | 27.21898 | -80.49800 | 19350 ft | 434 kts | 335° |
| 2026-04-22 15:09 | 27.24690 | -80.51103 | 19756 ft | 434 kts | 335° |
| 2026-04-22 15:09 | 27.27486 | -80.52400 | 20147 ft | 435 kts | 335° |
| 2026-04-22 15:09 | 27.30299 | -80.53699 | 20512 ft | 437 kts | 335° |
| 2026-04-22 15:10 | 27.33108 | -80.55011 | 20909 ft | 437 kts | 334° |
| 2026-04-22 15:10 | 27.35890 | -80.56405 | 21289 ft | 437 kts | 333° |
| 2026-04-22 15:10 | 27.38655 | -80.57834 | 21653 ft | 438 kts | 332° |
| 2026-04-22 15:10 | 27.41399 | -80.59257 | 21991 ft | 440 kts | 332° |
| 2026-04-22 15:11 | 27.44217 | -80.60705 | 22330 ft | 441 kts | 333° |
| 2026-04-22 15:11 | 27.46982 | -80.62115 | 22654 ft | 442 kts | 333° |
| 2026-04-22 15:11 | 27.49787 | -80.63549 | 22972 ft | 442 kts | 331° |
| 2026-04-22 15:11 | 27.52461 | -80.65238 | 23272 ft | 441 kts | 324° |
| 2026-04-22 15:12 | 27.54865 | -80.67363 | 23577 ft | 439 kts | 316° |
| 2026-04-22 15:12 | 27.57141 | -80.69658 | 23891 ft | 440 kts | 316° |
| 2026-04-22 15:12 | 27.59425 | -80.71967 | 24125 ft | 441 kts | 316° |
| 2026-04-22 15:12 | 27.61720 | -80.74276 | 24342 ft | 441 kts | 316° |
| 2026-04-22 15:13 | 27.63994 | -80.76546 | 24733 ft | 434 kts | 316° |
| 2026-04-22 15:13 | 27.66282 | -80.78823 | 24742 ft | 442 kts | 316° |
| 2026-04-22 15:13 | 27.68602 | -80.81127 | 24832 ft | 446 kts | 316° |
| 2026-04-22 15:13 | 27.70935 | -80.83442 | 25040 ft | 447 kts | 316° |
| 2026-04-22 15:14 | 27.73241 | -80.85730 | 25278 ft | 447 kts | 316° |
| 2026-04-22 15:14 | 27.75583 | -80.88055 | 25514 ft | 448 kts | 316° |
| 2026-04-22 15:14 | 27.77929 | -80.90387 | 25722 ft | 449 kts | 316° |
| 2026-04-22 15:14 | 27.80279 | -80.92724 | 25937 ft | 450 kts | 316° |
| 2026-04-22 15:15 | 27.82637 | -80.95057 | 26216 ft | 450 kts | 317° |
| 2026-04-22 15:15 | 27.85120 | -80.97213 | 26528 ft | 450 kts | 320° |
| 2026-04-22 15:15 | 27.87668 | -80.99260 | 26878 ft | 448 kts | 321° |
| 2026-04-22 15:15 | 27.90220 | -81.01272 | 27198 ft | 447 kts | 321° |
| 2026-04-22 15:16 | 27.92770 | -81.03288 | 27498 ft | 447 kts | 321° |
| 2026-04-22 15:16 | 27.95310 | -81.05313 | 27815 ft | 446 kts | 320° |
| 2026-04-22 15:16 | 27.97833 | -81.07342 | 28153 ft | 444 kts | 320° |
| 2026-04-22 15:16 | 28.00342 | -81.09371 | 28509 ft | 443 kts | 320° |
| 2026-04-22 15:17 | 28.02849 | -81.11403 | 28846 ft | 442 kts | 320° |
| 2026-04-22 15:17 | 28.05227 | -81.13331 | 29177 ft | 440 kts | 320° |
| 2026-04-22 15:17 | 28.07681 | -81.15320 | 29534 ft | 439 kts | 320° |
| 2026-04-22 15:17 | 28.10107 | -81.17386 | 29900 ft | 434 kts | 312° |
| 2026-04-22 15:18 | 28.11991 | -81.20001 | 30207 ft | 425 kts | 298° |
| 2026-04-22 15:18 | 28.13278 | -81.22987 | 30565 ft | 419 kts | 288° |
| 2026-04-22 15:18 | 28.13964 | -81.26179 | 30844 ft | 417 kts | 276° |
| 2026-04-22 15:18 | 28.14207 | -81.29449 | 31123 ft | 416 kts | 274° |
| 2026-04-22 15:19 | 28.14375 | -81.32725 | 31380 ft | 416 kts | 273° |
| 2026-04-22 15:19 | 28.14524 | -81.35953 | 31658 ft | 414 kts | 273° |
| 2026-04-22 15:19 | 28.14681 | -81.39207 | 31967 ft | 413 kts | 274° |
| 2026-04-22 15:19 | 28.14849 | -81.42450 | 32243 ft | 412 kts | 274° |
| 2026-04-22 15:20 | 28.14969 | -81.44639 | 32422 ft | 411 kts | 274° |
| 2026-04-22 15:20 | 28.15213 | -81.48931 | 32789 ft | 410 kts | 274° |
| 2026-04-22 15:20 | 28.15400 | -81.52151 | 33064 ft | 409 kts | 274° |
| 2026-04-22 15:20 | 28.15588 | -81.55372 | 33319 ft | 408 kts | 274° |
| 2026-04-22 15:21 | 28.15774 | -81.58574 | 33588 ft | 407 kts | 274° |
| 2026-04-22 15:21 | 28.15960 | -81.61782 | 33863 ft | 406 kts | 274° |
| 2026-04-22 15:21 | 28.16143 | -81.64969 | 34103 ft | 406 kts | 274° |
| 2026-04-22 15:21 | 28.16326 | -81.68157 | 34344 ft | 405 kts | 274° |
| 2026-04-22 15:22 | 28.16505 | -81.71301 | 34580 ft | 403 kts | 274° |
| 2026-04-22 15:22 | 28.16685 | -81.74466 | 34822 ft | 401 kts | 274° |
| 2026-04-22 15:22 | 28.16863 | -81.77609 | 35038 ft | 400 kts | 274° |
| 2026-04-22 15:22 | 28.17041 | -81.80768 | 35251 ft | 399 kts | 274° |
| 2026-04-22 15:23 | 28.17217 | -81.83904 | 35447 ft | 399 kts | 274° |
| 2026-04-22 15:23 | 28.17597 | -81.87015 | 35575 ft | 400 kts | 285° |
| 2026-04-22 15:23 | 28.18696 | -81.89914 | 35753 ft | 403 kts | 296° |
| 2026-04-22 15:23 | 28.20280 | -81.92541 | 35961 ft | 406 kts | 306° |
| 2026-04-22 15:24 | 28.22366 | -81.94739 | 36052 ft | 416 kts | 317° |
| 2026-04-22 15:24 | 28.24710 | -81.96648 | 36041 ft | 421 kts | 319° |
| 2026-04-22 15:24 | 28.29572 | -82.00356 | 36032 ft | 418 kts | 320° |
| 2026-04-22 15:25 | 28.34363 | -82.04061 | 36032 ft | 415 kts | 319° |
| 2026-04-22 15:25 | 28.39094 | -82.07800 | 36034 ft | 413 kts | 319° |
| 2026-04-22 15:26 | 28.43771 | -82.11517 | 36027 ft | 412 kts | 319° |
| 2026-04-22 15:26 | 28.48470 | -82.15251 | 36035 ft | 412 kts | 319° |
| 2026-04-22 15:27 | 28.53180 | -82.18997 | 36030 ft | 414 kts | 319° |
| 2026-04-22 15:27 | 28.57911 | -82.22767 | 36032 ft | 415 kts | 319° |
| 2026-04-22 15:28 | 28.62630 | -82.26530 | 36041 ft | 417 kts | 319° |
| 2026-04-22 15:28 | 28.66593 | -82.29695 | 36041 ft | 419 kts | 319° |
| 2026-04-22 15:29 | 28.71379 | -82.33520 | 36047 ft | 420 kts | 319° |
| 2026-04-22 15:30 | 28.78566 | -82.39271 | 36045 ft | 421 kts | 319° |
| 2026-04-22 15:30 | 28.83356 | -82.43110 | 36042 ft | 421 kts | 319° |
| 2026-04-22 15:31 | 28.88118 | -82.46930 | 36036 ft | 420 kts | 319° |
| 2026-04-22 15:31 | 28.92907 | -82.50777 | 36202 ft | 419 kts | 319° |
| 2026-04-22 15:32 | 28.97654 | -82.54593 | 36287 ft | 416 kts | 318° |
| 2026-04-22 15:32 | 29.02385 | -82.58404 | 36291 ft | 416 kts | 318° |
| 2026-04-22 15:33 | 29.07117 | -82.62220 | 36296 ft | 416 kts | 318° |
| 2026-04-22 15:33 | 29.11821 | -82.66017 | 36295 ft | 417 kts | 318° |
| 2026-04-22 15:34 | 29.16568 | -82.69853 | 36292 ft | 417 kts | 318° |
| 2026-04-22 15:34 | 29.21315 | -82.73692 | 36294 ft | 417 kts | 318° |
| 2026-04-22 15:35 | 29.26061 | -82.77536 | 36294 ft | 418 kts | 318° |
| 2026-04-22 15:35 | 29.30809 | -82.81386 | 36293 ft | 418 kts | 318° |
| 2026-04-22 15:36 | 29.35526 | -82.85215 | 36294 ft | 418 kts | 318° |
| 2026-04-22 15:36 | 29.40299 | -82.89094 | 36300 ft | 418 kts | 318° |
| 2026-04-22 15:37 | 29.45020 | -82.92936 | 36302 ft | 418 kts | 318° |
| 2026-04-22 15:37 | 29.49781 | -82.96814 | 36299 ft | 419 kts | 319° |
| 2026-04-22 15:38 | 29.54975 | -83.00012 | 36312 ft | 429 kts | 330° |
| 2026-04-22 15:38 | 29.63255 | -83.03862 | 36306 ft | 430 kts | 330° |
| 2026-04-22 15:39 | 29.68796 | -83.06465 | 36308 ft | 429 kts | 330° |
| 2026-04-22 15:39 | 29.74321 | -83.09088 | 36303 ft | 429 kts | 330° |
| 2026-04-22 15:40 | 29.79849 | -83.11724 | 36306 ft | 429 kts | 330° |
| 2026-04-22 15:40 | 29.85358 | -83.14353 | 36306 ft | 429 kts | 330° |
| 2026-04-22 15:41 | 29.90881 | -83.16992 | 36302 ft | 429 kts | 330° |
| 2026-04-22 15:41 | 29.96405 | -83.19634 | 36302 ft | 429 kts | 330° |
| 2026-04-22 15:42 | 30.01882 | -83.22256 | 36303 ft | 429 kts | 330° |
| 2026-04-22 15:42 | 30.07394 | -83.24899 | 36310 ft | 429 kts | 330° |
| 2026-04-22 15:43 | 30.12920 | -83.27552 | 36306 ft | 429 kts | 330° |
| 2026-04-22 15:43 | 30.18452 | -83.30211 | 36306 ft | 430 kts | 330° |
| 2026-04-22 15:44 | 30.23976 | -83.32868 | 36307 ft | 430 kts | 330° |
| 2026-04-22 15:44 | 30.29471 | -83.35520 | 36306 ft | 430 kts | 330° |
| 2026-04-22 15:45 | 30.35000 | -83.38193 | 36309 ft | 431 kts | 330° |
| 2026-04-22 15:45 | 30.40534 | -83.40872 | 36302 ft | 431 kts | 330° |
| 2026-04-22 15:46 | 30.46082 | -83.43562 | 36294 ft | 432 kts | 330° |
| 2026-04-22 15:46 | 30.51599 | -83.46239 | 36297 ft | 433 kts | 330° |
| 2026-04-22 15:47 | 30.57159 | -83.48940 | 36308 ft | 433 kts | 330° |
| 2026-04-22 15:47 | 30.62739 | -83.51655 | 36304 ft | 435 kts | 330° |
| 2026-04-22 15:48 | 30.68327 | -83.54376 | 36307 ft | 435 kts | 330° |
| 2026-04-22 15:48 | 30.73889 | -83.57089 | 36306 ft | 436 kts | 331° |
| 2026-04-22 15:49 | 30.79481 | -83.59819 | 36313 ft | 436 kts | 331° |
| 2026-04-22 15:49 | 30.85093 | -83.62563 | 36313 ft | 437 kts | 331° |
| 2026-04-22 15:50 | 30.90703 | -83.65309 | 36314 ft | 437 kts | 331° |
| 2026-04-22 15:50 | 30.96306 | -83.68055 | 36308 ft | 436 kts | 331° |
| 2026-04-22 15:51 | 31.01869 | -83.70785 | 36310 ft | 436 kts | 331° |
| 2026-04-22 15:51 | 31.07465 | -83.73535 | 36316 ft | 436 kts | 331° |
| 2026-04-22 15:52 | 31.13049 | -83.76283 | 36315 ft | 435 kts | 331° |
| 2026-04-22 15:52 | 31.18634 | -83.79035 | 36314 ft | 435 kts | 331° |
| 2026-04-22 15:53 | 31.24214 | -83.81788 | 36311 ft | 435 kts | 331° |
| 2026-04-22 15:53 | 31.29811 | -83.84552 | 36304 ft | 435 kts | 331° |
| 2026-04-22 15:54 | 31.35351 | -83.87293 | 36305 ft | 435 kts | 332° |
| 2026-04-22 15:54 | 31.40941 | -83.90062 | 36303 ft | 435 kts | 332° |
| 2026-04-22 15:55 | 31.46517 | -83.92827 | 36305 ft | 435 kts | 332° |
| 2026-04-22 15:55 | 31.52126 | -83.95538 | 36299 ft | 438 kts | 336° |
| 2026-04-22 15:56 | 31.58128 | -83.97130 | 36315 ft | 444 kts | 344° |
| 2026-04-22 15:56 | 31.64200 | -83.98409 | 36296 ft | 445 kts | 345° |
| 2026-04-22 15:57 | 31.70297 | -83.99711 | 36298 ft | 445 kts | 345° |
| 2026-04-22 15:57 | 31.76399 | -84.01053 | 36301 ft | 446 kts | 345° |
| 2026-04-22 15:58 | 31.82489 | -84.02410 | 36307 ft | 446 kts | 345° |
| 2026-04-22 15:58 | 31.88596 | -84.03775 | 36307 ft | 446 kts | 345° |
| 2026-04-22 15:59 | 31.94703 | -84.05141 | 36283 ft | 446 kts | 346° |
| 2026-04-22 15:59 | 32.00813 | -84.06510 | 36278 ft | 446 kts | 346° |
| 2026-04-22 16:00 | 32.06869 | -84.07867 | 36286 ft | 446 kts | 346° |
| 2026-04-22 16:00 | 32.12977 | -84.09238 | 36270 ft | 446 kts | 346° |
| 2026-04-22 16:01 | 32.19062 | -84.10607 | 36279 ft | 444 kts | 346° |
| 2026-04-22 16:01 | 32.25121 | -84.11970 | 36275 ft | 442 kts | 347° |
| 2026-04-22 16:02 | 32.31170 | -84.13333 | 36282 ft | 441 kts | 347° |
| 2026-04-22 16:02 | 32.37156 | -84.14684 | 36276 ft | 441 kts | 347° |
| 2026-04-22 16:03 | 32.43186 | -84.16047 | 36272 ft | 440 kts | 347° |
| 2026-04-22 16:03 | 32.49196 | -84.17407 | 36283 ft | 440 kts | 347° |
| 2026-04-22 16:04 | 32.55148 | -84.18998 | 36265 ft | 437 kts | 337° |
| 2026-04-22 16:04 | 32.60652 | -84.21973 | 36278 ft | 435 kts | 333° |
| 2026-04-22 16:05 | 32.66117 | -84.25071 | 36290 ft | 435 kts | 333° |
| 2026-04-22 16:05 | 32.71570 | -84.28130 | 36295 ft | 436 kts | 333° |
| 2026-04-22 16:06 | 32.77065 | -84.31185 | 36304 ft | 436 kts | 333° |
| 2026-04-22 16:06 | 32.82558 | -84.34232 | 36315 ft | 436 kts | 333° |
| 2026-04-22 16:07 | 32.88054 | -84.37282 | 36317 ft | 436 kts | 333° |
| 2026-04-22 16:07 | 32.93552 | -84.40339 | 36318 ft | 436 kts | 333° |
| 2026-04-22 16:08 | 32.99047 | -84.43399 | 36316 ft | 436 kts | 333° |
| 2026-04-22 16:08 | 33.04537 | -84.46461 | 36307 ft | 436 kts | 333° |
| 2026-04-22 16:09 | 33.09989 | -84.49505 | 36304 ft | 435 kts | 333° |
| 2026-04-22 16:09 | 33.15471 | -84.52570 | 36292 ft | 435 kts | 333° |
| 2026-04-22 16:10 | 33.20945 | -84.55636 | 36302 ft | 434 kts | 333° |
| 2026-04-22 16:10 | 33.26411 | -84.58701 | 36301 ft | 433 kts | 334° |
| 2026-04-22 16:11 | 33.31868 | -84.61764 | 36306 ft | 433 kts | 334° |
| 2026-04-22 16:11 | 33.37323 | -84.64832 | 36303 ft | 432 kts | 334° |
| 2026-04-22 16:12 | 33.42728 | -84.67875 | 36298 ft | 431 kts | 334° |
| 2026-04-22 16:12 | 33.48164 | -84.70941 | 36302 ft | 431 kts | 334° |
| 2026-04-22 16:13 | 33.53588 | -84.74003 | 36288 ft | 430 kts | 334° |
| 2026-04-22 16:13 | 33.58092 | -84.76550 | 36278 ft | 430 kts | 334° |
| 2026-04-22 16:14 | 33.64376 | -84.80107 | 36279 ft | 429 kts | 334° |
| 2026-04-22 16:14 | 33.69774 | -84.83169 | 36280 ft | 429 kts | 334° |
| 2026-04-22 16:15 | 33.74266 | -84.85719 | 36284 ft | 428 kts | 334° |
| 2026-04-22 16:15 | 33.80537 | -84.89283 | 36291 ft | 428 kts | 334° |
| 2026-04-22 16:16 | 33.85049 | -84.91852 | 36291 ft | 428 kts | 334° |
| 2026-04-22 16:16 | 33.90411 | -84.94909 | 36296 ft | 428 kts | 334° |
| 2026-04-22 16:17 | 33.95799 | -84.97985 | 36296 ft | 428 kts | 334° |
| 2026-04-22 16:17 | 34.01185 | -85.01064 | 36291 ft | 428 kts | 334° |
| 2026-04-22 16:18 | 34.06573 | -85.04149 | 36290 ft | 428 kts | 334° |
| 2026-04-22 16:18 | 34.11961 | -85.07237 | 36283 ft | 428 kts | 334° |
| 2026-04-22 16:19 | 34.17341 | -85.10326 | 36273 ft | 428 kts | 334° |
| 2026-04-22 16:19 | 34.22691 | -85.13401 | 36273 ft | 428 kts | 334° |
| 2026-04-22 16:20 | 34.28087 | -85.16508 | 36280 ft | 429 kts | 334° |
| 2026-04-22 16:20 | 34.33471 | -85.19612 | 36277 ft | 429 kts | 334° |
| 2026-04-22 16:21 | 34.38860 | -85.22724 | 36282 ft | 429 kts | 333° |
| 2026-04-22 16:21 | 34.44219 | -85.25823 | 36279 ft | 429 kts | 333° |
| 2026-04-22 16:22 | 34.52309 | -85.30508 | 36267 ft | 429 kts | 333° |
| 2026-04-22 16:23 | 34.60404 | -85.35207 | 36270 ft | 429 kts | 333° |
| 2026-04-22 16:23 | 34.65790 | -85.38340 | 36268 ft | 429 kts | 333° |
| 2026-04-22 16:24 | 34.73861 | -85.43042 | 36260 ft | 428 kts | 333° |
| 2026-04-22 16:24 | 34.76561 | -85.44618 | 35938 ft | 434 kts | 333° |
| 2026-04-22 16:25 | 34.79287 | -85.46210 | 35398 ft | 434 kts | 333° |
| 2026-04-22 16:25 | 34.84690 | -85.49368 | 34150 ft | 434 kts | 333° |
| 2026-04-22 16:25 | 34.87413 | -85.50961 | 33430 ft | 434 kts | 333° |
| 2026-04-22 16:26 | 34.90145 | -85.52561 | 32716 ft | 435 kts | 333° |
| 2026-04-22 16:26 | 34.92871 | -85.54159 | 32028 ft | 435 kts | 333° |
| 2026-04-22 16:26 | 34.95610 | -85.55765 | 31331 ft | 436 kts | 334° |
| 2026-04-22 16:26 | 34.98350 | -85.57373 | 30613 ft | 437 kts | 334° |
| 2026-04-22 16:27 | 35.01098 | -85.58987 | 29784 ft | 440 kts | 334° |
| 2026-04-22 16:27 | 35.03853 | -85.60606 | 28965 ft | 440 kts | 334° |
| 2026-04-22 16:27 | 35.06611 | -85.62228 | 28177 ft | 440 kts | 334° |
| 2026-04-22 16:27 | 35.09367 | -85.63850 | 27640 ft | 435 kts | 333° |
| 2026-04-22 16:28 | 35.12075 | -85.65445 | 27074 ft | 431 kts | 333° |
| 2026-04-22 16:28 | 35.14732 | -85.67011 | 26528 ft | 426 kts | 333° |
| 2026-04-22 16:28 | 35.17394 | -85.68581 | 25985 ft | 422 kts | 333° |
| 2026-04-22 16:28 | 35.20035 | -85.70141 | 25450 ft | 419 kts | 333° |
| 2026-04-22 16:29 | 35.22643 | -85.71682 | 24916 ft | 416 kts | 333° |
| 2026-04-22 16:29 | 35.25245 | -85.73220 | 24362 ft | 414 kts | 333° |
| 2026-04-22 16:29 | 35.27831 | -85.74750 | 23816 ft | 411 kts | 333° |
| 2026-04-22 16:29 | 35.30402 | -85.76273 | 23184 ft | 409 kts | 333° |
| 2026-04-22 16:30 | 35.32093 | -85.77275 | 22814 ft | 406 kts | 333° |
| 2026-04-22 16:30 | 35.35479 | -85.79283 | 22081 ft | 401 kts | 333° |
| 2026-04-22 16:30 | 35.37979 | -85.80766 | 21556 ft | 398 kts | 333° |
| 2026-04-22 16:30 | 35.40465 | -85.82243 | 21018 ft | 395 kts | 333° |
| 2026-04-22 16:31 | 35.42925 | -85.83704 | 20512 ft | 392 kts | 333° |
| 2026-04-22 16:31 | 35.45346 | -85.85145 | 20011 ft | 389 kts | 333° |
| 2026-04-22 16:31 | 35.47785 | -85.86596 | 19789 ft | 379 kts | 333° |
| 2026-04-22 16:31 | 35.50100 | -85.87973 | 19617 ft | 368 kts | 333° |
| 2026-04-22 16:32 | 35.52371 | -85.89325 | 19459 ft | 358 kts | 333° |
| 2026-04-22 16:32 | 35.54573 | -85.90661 | 19294 ft | 348 kts | 329° |
| 2026-04-22 16:32 | 35.56449 | -85.92474 | 19024 ft | 342 kts | 313° |
| 2026-04-22 16:32 | 35.58051 | -85.94630 | 18745 ft | 344 kts | 311° |
| 2026-04-22 16:33 | 35.59659 | -85.96849 | 18417 ft | 351 kts | 311° |
| 2026-04-22 16:33 | 35.61298 | -85.99098 | 18063 ft | 355 kts | 311° |
| 2026-04-22 16:33 | 35.62957 | -86.01344 | 17679 ft | 355 kts | 311° |
| 2026-04-22 16:33 | 35.64634 | -86.03597 | 17167 ft | 357 kts | 311° |
| 2026-04-22 16:34 | 35.66302 | -86.05833 | 16814 ft | 353 kts | 311° |
| 2026-04-22 16:34 | 35.67956 | -86.08048 | 16469 ft | 349 kts | 311° |
| 2026-04-22 16:34 | 35.69584 | -86.10231 | 16145 ft | 344 kts | 311° |
| 2026-04-22 16:34 | 35.71190 | -86.12391 | 15821 ft | 340 kts | 310° |
| 2026-04-22 16:35 | 35.72666 | -86.14640 | 15510 ft | 337 kts | 306° |
| 2026-04-22 16:35 | 35.74050 | -86.16960 | 15199 ft | 334 kts | 304° |
| 2026-04-22 16:35 | 35.75405 | -86.19286 | 14893 ft | 334 kts | 304° |
| 2026-04-22 16:35 | 35.76745 | -86.21581 | 14595 ft | 334 kts | 304° |
| 2026-04-22 16:36 | 35.78109 | -86.23899 | 14282 ft | 334 kts | 304° |
| 2026-04-22 16:36 | 35.79478 | -86.26208 | 13961 ft | 334 kts | 304° |
| 2026-04-22 16:36 | 35.80853 | -86.28516 | 13611 ft | 333 kts | 304° |
| 2026-04-22 16:36 | 35.82221 | -86.30807 | 13293 ft | 332 kts | 305° |
| 2026-04-22 16:37 | 35.83590 | -86.33098 | 12980 ft | 330 kts | 304° |
| 2026-04-22 16:37 | 35.84952 | -86.35377 | 12657 ft | 329 kts | 304° |
| 2026-04-22 16:37 | 35.86305 | -86.37641 | 12382 ft | 328 kts | 304° |
| 2026-04-22 16:37 | 35.87654 | -86.39902 | 12090 ft | 326 kts | 304° |
| 2026-04-22 16:38 | 35.88996 | -86.42153 | 11784 ft | 325 kts | 304° |
| 2026-04-22 16:38 | 35.90335 | -86.44397 | 11473 ft | 322 kts | 304° |
| 2026-04-22 16:38 | 35.91654 | -86.46607 | 11181 ft | 319 kts | 304° |
| 2026-04-22 16:38 | 35.92950 | -86.48784 | 10911 ft | 308 kts | 304° |
| 2026-04-22 16:39 | 35.94186 | -86.50858 | 10618 ft | 298 kts | 304° |
| 2026-04-22 16:39 | 35.95395 | -86.52890 | 10360 ft | 288 kts | 304° |
| 2026-04-22 16:39 | 35.96563 | -86.54853 | 10079 ft | 279 kts | 304° |
| 2026-04-22 16:39 | 35.97698 | -86.56761 | 9810 ft | 271 kts | 304° |
| 2026-04-22 16:40 | 35.98897 | -86.58512 | 9537 ft | 267 kts | 319° |
| 2026-04-22 16:40 | 36.00552 | -86.59476 | 9315 ft | 265 kts | 346° |
| 2026-04-22 16:40 | 36.04151 | -86.58730 | 8829 ft | 265 kts | 15° |
| 2026-04-22 16:41 | 36.05903 | -86.57993 | 8578 ft | 266 kts | 15° |
| 2026-04-22 16:41 | 36.07645 | -86.57258 | 8360 ft | 261 kts | 17° |
| 2026-04-22 16:41 | 36.09330 | -86.56463 | 8079 ft | 256 kts | 18° |
| 2026-04-22 16:41 | 36.10957 | -86.55680 | 7932 ft | 247 kts | 17° |
| 2026-04-22 16:42 | 36.12558 | -86.54931 | 7856 ft | 244 kts | 17° |
| 2026-04-22 16:42 | 36.14125 | -86.54268 | 7659 ft | 237 kts | 14° |
| 2026-04-22 16:42 | 36.15681 | -86.53607 | 7700 ft | 240 kts | 16° |
| 2026-04-22 16:42 | 36.17247 | -86.52859 | 7612 ft | 240 kts | 17° |
| 2026-04-22 16:43 | 36.18810 | -86.52111 | 7426 ft | 238 kts | 17° |
| 2026-04-22 16:43 | 36.20332 | -86.51390 | 7414 ft | 235 kts | 17° |
| 2026-04-22 16:43 | 36.21859 | -86.50666 | 7301 ft | 234 kts | 17° |
| 2026-04-22 16:43 | 36.23362 | -86.49954 | 7201 ft | 226 kts | 16° |
| 2026-04-22 16:44 | 36.24821 | -86.49251 | 7094 ft | 228 kts | 16° |
| 2026-04-22 16:44 | 36.26342 | -86.48519 | 6725 ft | 239 kts | 17° |
| 2026-04-22 16:44 | 36.27897 | -86.47772 | 6365 ft | 241 kts | 16° |
| 2026-04-22 16:44 | 36.29464 | -86.47015 | 5986 ft | 242 kts | 17° |
| 2026-04-22 16:45 | 36.31036 | -86.46263 | 5619 ft | 242 kts | 17° |
| 2026-04-22 16:45 | 36.32590 | -86.45524 | 5253 ft | 242 kts | 17° |
| 2026-04-22 16:45 | 36.34205 | -86.44924 | 4961 ft | 234 kts | 356° |
| 2026-04-22 16:45 | 36.35642 | -86.45454 | 4745 ft | 211 kts | 315° |
| 2026-04-22 16:46 | 36.36484 | -86.46834 | 4518 ft | 198 kts | 291° |
| 2026-04-22 16:46 | 36.36864 | -86.48450 | 4252 ft | 194 kts | 271° |
| 2026-04-22 16:46 | 36.36735 | -86.50099 | 4076 ft | 192 kts | 253° |
| 2026-04-22 16:46 | 36.36154 | -86.51585 | 4034 ft | 195 kts | 231° |
| 2026-04-22 16:47 | 36.35229 | -86.52809 | 4013 ft | 193 kts | 227° |
| 2026-04-22 16:47 | 36.34308 | -86.53999 | 4019 ft | 190 kts | 226° |
| 2026-04-22 16:47 | 36.33701 | -86.54785 | 4005 ft | 191 kts | 227° |
| 2026-04-22 16:47 | 36.32477 | -86.56367 | 4010 ft | 189 kts | 227° |
| 2026-04-22 16:48 | 36.31569 | -86.57540 | 3992 ft | 189 kts | 227° |
| 2026-04-22 16:48 | 36.30618 | -86.58650 | 3994 ft | 189 kts | 213° |
| 2026-04-22 16:48 | 36.29395 | -86.59358 | 3789 ft | 199 kts | 206° |
| 2026-04-22 16:48 | 36.28097 | -86.60008 | 3529 ft | 203 kts | 203° |
| 2026-04-22 16:49 | 36.26779 | -86.60562 | 3284 ft | 196 kts | 200° |
| 2026-04-22 16:49 | 36.25479 | -86.61030 | 3045 ft | 194 kts | 200° |
| 2026-04-22 16:49 | 36.24206 | -86.61608 | 2715 ft | 192 kts | 202° |
| 2026-04-22 16:49 | 36.22942 | -86.62116 | 2457 ft | 194 kts | 199° |
| 2026-04-22 16:50 | 36.21679 | -86.62593 | 2242 ft | 190 kts | 200° |
| 2026-04-22 16:50 | 36.20433 | -86.63073 | 2012 ft | 184 kts | 197° |
| 2026-04-22 16:50 | 36.19225 | -86.63572 | 1762 ft | 182 kts | 201° |
| 2026-04-22 16:50 | 36.18042 | -86.64059 | 1598 ft | 176 kts | 198° |
| 2026-04-22 16:51 | 36.16960 | -86.64426 | 1437 ft | 165 kts | 199° |
| 2026-04-22 16:51 | 36.15909 | -86.64859 | 1231 ft | 160 kts | 202° |
| 2026-04-22 16:51 | 36.14875 | -86.65309 | 999 ft | 157 kts | 200° |
| 2026-04-22 16:51 | 36.13856 | -86.65733 | 697 ft | 153 kts | 200° |
| 2026-04-22 16:52 | 36.12883 | -86.66113 | 563 ft | 133 kts | 198° |
| 2026-04-22 16:52 | 36.12436 | -86.66288 | 568 ft | 0 kts | 199° |
| 2026-04-22 16:52 | 36.12363 | -86.66319 | 568 ft | 25 kts | 199° |
| 2026-04-22 16:52 | 36.12138 | -86.66419 | 573 ft | 43 kts | 198° |
| 2026-04-22 16:53 | 36.11855 | -86.66540 | 582 ft | 28 kts | 218° |
| 2026-04-22 16:53 | 36.11903 | -86.66636 | 582 ft | 21 kts | 10° |
| 2026-04-22 16:53 | 36.12081 | -86.66581 | 578 ft | 32 kts | 17° |
| 2026-04-22 16:53 | 36.12233 | -86.66523 | 576 ft | 15 kts | 11° |
| 2026-04-22 16:54 | 36.12291 | -86.66585 | 570 ft | 11 kts | 288° |
| 2026-04-22 16:54 | 36.12315 | -86.66676 | 576 ft | 10 kts | 288° |
| 2026-04-22 16:54 | 36.12339 | -86.66764 | 578 ft | 14 kts | 289° |
| 2026-04-22 16:54 | 36.12415 | -86.66913 | 576 ft | 25 kts | 313° |
| 2026-04-22 16:55 | 36.12534 | -86.66919 | 577 ft | 19 kts | 30° |
| 2026-04-22 16:55 | 36.12636 | -86.66834 | 571 ft | 18 kts | 40° |
| 2026-04-22 16:55 | 36.12717 | -86.66747 | 570 ft | 13 kts | 40° |
| 2026-04-22 16:55 | 36.12793 | -86.66711 | 570 ft | 11 kts | 357° |
| 2026-04-22 16:56 | 36.12845 | -86.66738 | 566 ft | 0 kts | 315° |
| 2026-04-22 16:56 | 36.12845 | -86.66739 | 566 ft | 0 kts | 315° |
| 2026-04-22 16:57 | 36.12847 | -86.66741 | 566 ft | 0 kts | 313° |
| 2026-04-22 16:57 | 36.12848 | -86.66747 | 566 ft | 1 kts | 290° |
| 2026-04-22 16:57 | 36.12849 | -86.66750 | 566 ft | 1 kts | 286° |
| 2026-04-22 16:58 | 36.12849 | -86.66753 | 566 ft | 1 kts | 284° |
| 2026-04-22 16:58 | 36.12850 | -86.66759 | 566 ft | 0 kts | 279° |
| 2026-04-22 16:58 | 36.12850 | -86.66760 | 566 ft | 0 kts | 278° |